Time;durP1;ratioP1;P1;durP2;ratioP2;P2;SDS_P1;SDS_P2;PMS_P1;PMS_P2;Temp;Humidity;BMP_temperature;BMP_pressure;BME280_temperature;BME280_humidity;BME280_pressure;Samples;Min_cycle;Max_cycle;Signal;HPM_P1;HPM_P2
2023/10/16 00:03:41;;;;;;;1.73;0.70;;;;;;;;;;8285151;28;20041;-73
2023/10/16 00:07:43;;;;;;;1.98;0.70;;;;;;;;;;8285067;28;20162;-74
2023/10/16 00:11:43;;;;;;;4.32;0.70;;;;;;;;;;8286023;28;20031;-74
2023/10/16 00:15:49;;;;;;;1.50;0.75;;;;;;;;;;8282106;28;20391;-74
2023/10/16 00:19:54;;;;;;;1.83;0.68;;;;;;;;;;8282687;28;20032;-74
2023/10/16 00:23:54;;;;;;;1.17;0.63;;;;;;;;;;8284272;28;20159;-74
2023/10/16 00:27:55;;;;;;;0.93;0.60;;;;;;;;;;8286837;28;20158;-73
2023/10/16 00:31:58;;;;;;;0.70;0.70;;;;;;;;;;8285983;28;20042;-73
2023/10/16 00:36:00;;;;;;;1.52;0.80;;;;;;;;;;8286332;28;20041;-74
2023/10/16 00:40:02;;;;;;;2.65;0.80;;;;;;;;;;8283750;28;20029;-72
2023/10/16 00:44:07;;;;;;;1.42;0.80;;;;;;;;;;8289060;28;20028;-74
2023/10/16 00:48:08;;;;;;;1.38;0.73;;;;;;;;;;8269773;28;20048;-73
2023/10/16 00:52:08;;;;;;;1.23;0.70;;;;;;;;;;8283278;28;20021;-74
2023/10/16 00:56:12;;;;;;;2.20;0.80;;;;;;;;;;8284160;28;20044;-73
2023/10/16 01:00:13;;;;;;;2.50;0.73;;;;;;;;;;8279947;28;20056;-74
2023/10/16 01:04:13;;;;;;;3.40;0.93;;;;;;;;;;8273421;28;20063;-73
2023/10/16 01:08:17;;;;;;;0.98;0.65;;;;;;;;;;8283669;28;20021;-74
2023/10/16 01:12:20;;;;;;;1.17;0.77;;;;;;;;;;8282490;28;20029;-74
2023/10/16 01:16:20;;;;;;;1.50;0.60;;;;;;;;;;8284359;28;20045;-73
2023/10/16 01:20:20;;;;;;;1.85;0.70;;;;;;;;;;8279352;28;20808;-72
2023/10/16 01:24:21;;;;;;;2.63;0.60;;;;;;;;;;8282603;28;20021;-73
2023/10/16 01:28:21;;;;;;;0.57;0.57;;;;;;;;;;8282793;28;20032;-72
2023/10/16 01:32:22;;;;;;;2.25;0.80;;;;;;;;;;8281590;28;20028;-73
2023/10/16 01:36:23;;;;;;;1.58;0.80;;;;;;;;;;8282222;28;20029;-73
2023/10/16 01:40:25;;;;;;;2.50;0.70;;;;;;;;;;8281054;28;20023;-72
2023/10/16 01:44:25;;;;;;;1.10;0.75;;;;;;;;;;8280752;28;20025;-73
2023/10/16 01:48:28;;;;;;;1.60;0.73;;;;;;;;;;8283167;28;20040;-73
2023/10/16 01:52:30;;;;;;;2.40;0.85;;;;;;;;;;8285121;28;20321;-73
2023/10/16 01:56:32;;;;;;;1.95;0.88;;;;;;;;;;8279914;28;20032;-74
2023/10/16 02:00:34;;;;;;;1.98;0.70;;;;;;;;;;8279675;28;20030;-74
2023/10/16 02:04:38;;;;;;;1.45;0.70;;;;;;;;;;8282238;28;20029;-74
2023/10/16 02:08:39;;;;;;;1.55;0.80;;;;;;;;;;8280493;28;20025;-73
2023/10/16 02:12:39;;;;;;;2.45;0.90;;;;;;;;;;8281047;28;20029;-73
2023/10/16 02:16:41;;;;;;;1.13;0.82;;;;;;;;;;8277838;28;20040;-74
2023/10/16 02:20:45;;;;;;;3.40;0.70;;;;;;;;;;8277961;28;20024;-74
2023/10/16 02:24:48;;;;;;;0.93;0.80;;;;;;;;;;8279636;28;20033;-73
2023/10/16 02:28:54;;;;;;;3.15;0.82;;;;;;;;;;8280600;28;20041;-74
2023/10/16 02:33:12;;;;;;;2.38;0.90;;;;;;;;;;8277650;28;20032;-74
2023/10/16 02:37:14;;;;;;;2.17;0.95;;;;;;;;;;8260880;28;20027;-74
2023/10/16 02:41:16;;;;;;;1.52;0.73;;;;;;;;;;8278821;28;20091;-73
2023/10/16 02:45:24;;;;;;;1.48;0.77;;;;;;;;;;8280019;28;20148;-74
2023/10/16 02:49:24;;;;;;;1.95;1.00;;;;;;;;;;8280974;28;20049;-74
2023/10/16 02:53:28;;;;;;;2.55;0.65;;;;;;;;;;8280251;28;20041;-73
2023/10/16 02:57:28;;;;;;;1.63;0.85;;;;;;;;;;8280407;28;20020;-73
2023/10/16 03:01:28;;;;;;;2.03;0.93;;;;;;;;;;8277910;28;20720;-74
2023/10/16 03:05:28;;;;;;;3.15;0.70;;;;;;;;;;8279831;28;20033;-74
2023/10/16 03:09:29;;;;;;;2.80;0.70;;;;;;;;;;8277820;28;20021;-73
2023/10/16 03:13:29;;;;;;;1.40;0.75;;;;;;;;;;8279228;28;20040;-73
2023/10/16 03:21:31;;;;;;;3.60;0.90;;;;;;;;;;8285673;28;20383;-74
2023/10/16 03:25:45;;;;;;;1.90;0.70;;;;;;;;;;8286024;28;20860;-73
2023/10/16 03:29:51;;;;;;;1.58;0.93;;;;;;;;;;8283352;28;20504;-74
2023/10/16 03:33:53;;;;;;;1.15;0.80;;;;;;;;;;8285094;28;20048;-72
2023/10/16 03:37:54;;;;;;;1.00;0.90;;;;;;;;;;8288736;28;20106;-73
2023/10/16 03:41:55;;;;;;;3.45;1.02;;;;;;;;;;8272614;28;20029;-74
2023/10/16 03:45:55;;;;;;;1.08;0.70;;;;;;;;;;8268691;28;21731;-73
2023/10/16 03:49:55;;;;;;;2.88;0.70;;;;;;;;;;8284168;28;21516;-74
2023/10/16 03:53:56;;;;;;;0.70;0.70;;;;;;;;;;8269968;28;23002;-73
2023/10/16 03:57:57;;;;;;;2.67;0.70;;;;;;;;;;8283035;28;23323;-73
2023/10/16 04:01:57;;;;;;;1.17;0.60;;;;;;;;;;8281295;28;21866;-73
2023/10/16 04:05:57;;;;;;;1.75;0.93;;;;;;;;;;8281583;28;22968;-73
2023/10/16 04:10:14;;;;;;;3.55;0.90;;;;;;;;;;8279918;28;20056;-73
2023/10/16 04:14:14;;;;;;;1.15;0.70;;;;;;;;;;8281633;28;20032;-72
2023/10/16 04:18:27;;;;;;;0.70;0.70;;;;;;;;;;8263127;28;20032;-73
2023/10/16 04:22:42;;;;;;;3.47;1.10;;;;;;;;;;8282459;28;20028;-73
2023/10/16 04:26:57;;;;;;;1.30;0.88;;;;;;;;;;8265801;28;20033;-73
2023/10/16 04:31:24;;;;;;;3.00;0.90;;;;;;;;;;8279581;28;22150;-76
2023/10/16 04:35:51;;;;;;;1.30;0.98;;;;;;;;;;8282266;28;20709;-73
2023/10/16 04:52:14;;;;;;;2.03;0.90;;;;;;;;;;8281442;28;20112;-72
2023/10/16 04:56:30;;;;;;;3.60;0.80;;;;;;;;;;8280212;28;20013;-73
2023/10/16 05:05:10;;;;;;;2.63;0.90;;;;;;;;;;8264681;28;20073;-72
2023/10/16 05:13:55;;;;;;;1.48;1.10;;;;;;;;;;8280712;28;20040;-73
2023/10/16 05:18:42;;;;;;;4.75;1.15;;;;;;;;;;8282449;28;20048;-72
2023/10/16 06:14:12;;;;;;;3.50;1.13;;;;;;;;;;8287679;28;20036;-73
2023/10/16 06:18:12;;;;;;;3.08;1.42;;;;;;;;;;8288409;28;20364;-73
2023/10/16 06:22:13;;;;;;;2.88;1.73;;;;;;;;;;8290300;28;20018;-73
2023/10/16 06:26:14;;;;;;;4.38;1.80;;;;;;;;;;8288410;28;20102;-72
2023/10/16 06:30:19;;;;;;;4.18;1.50;;;;;;;;;;8286944;28;20425;-73
2023/10/16 06:34:20;;;;;;;1.50;1.33;;;;;;;;;;8276012;28;20103;-73
2023/10/16 06:38:21;;;;;;;3.42;1.50;;;;;;;;;;8307547;28;20025;-73
2023/10/16 06:42:21;;;;;;;4.60;1.30;;;;;;;;;;8330775;28;20009;-73
2023/10/16 06:46:23;;;;;;;4.93;1.80;;;;;;;;;;8333304;28;20028;-73
2023/10/16 06:54:24;;;;;;;2.47;1.48;;;;;;;;;;8331055;28;20037;-73
2023/10/16 06:58:26;;;;;;;4.30;1.98;;;;;;;;;;8333269;28;20009;-72
2023/10/16 07:02:29;;;;;;;5.28;2.30;;;;;;;;;;8318179;28;20120;-73
2023/10/16 07:06:32;;;;;;;3.45;1.98;;;;;;;;;;8326550;28;20183;-73
2023/10/16 07:10:32;;;;;;;4.50;2.38;;;;;;;;;;8291466;28;20896;-73
2023/10/16 07:14:32;;;;;;;4.60;2.10;;;;;;;;;;8293826;28;20025;-73
2023/10/16 07:18:33;;;;;;;2.55;1.90;;;;;;;;;;8279976;28;20882;-73
2023/10/16 07:22:33;;;;;;;5.93;2.60;;;;;;;;;;8306563;28;20128;-73
2023/10/16 07:26:34;;;;;;;5.70;2.63;;;;;;;;;;8300813;28;20024;-72
2023/10/16 07:30:35;;;;;;;3.75;2.30;;;;;;;;;;8281856;28;21055;-73
2023/10/16 07:34:38;;;;;;;5.65;2.42;;;;;;;;;;8296465;28;20052;-74
2023/10/16 07:38:38;;;;;;;5.57;2.58;;;;;;;;;;8293205;28;20024;-74
2023/10/16 07:42:38;;;;;;;5.90;2.65;;;;;;;;;;8279298;28;20036;-73
2023/10/16 07:46:38;;;;;;;5.65;2.28;;;;;;;;;;8293870;28;20033;-74
2023/10/16 07:50:41;;;;;;;5.35;2.08;;;;;;;;;;8293124;28;20045;-74
2023/10/16 07:54:43;;;;;;;9.80;2.33;;;;;;;;;;8290709;28;20052;-74
2023/10/16 07:58:54;;;;;;;5.90;2.40;;;;;;;;;;8289134;28;20032;-74
2023/10/16 08:03:04;;;;;;;9.68;2.33;;;;;;;;;;8288814;28;20036;-72
2023/10/16 08:07:04;;;;;;;7.65;2.60;;;;;;;;;;8281683;28;20197;-74
2023/10/16 08:11:18;;;;;;;6.65;2.55;;;;;;;;;;8290699;28;20600;-74
2023/10/16 08:15:21;;;;;;;3.95;2.38;;;;;;;;;;8285487;28;20032;-74
2023/10/16 08:19:24;;;;;;;4.55;2.47;;;;;;;;;;8291475;28;20025;-72
2023/10/16 08:23:24;;;;;;;7.10;2.95;;;;;;;;;;8291481;28;20114;-71
2023/10/16 08:31:41;;;;;;;3.87;2.63;;;;;;;;;;8294136;28;20053;-72
2023/10/16 08:35:42;;;;;;;7.22;3.08;;;;;;;;;;8292435;28;20490;-72
2023/10/16 08:39:47;;;;;;;4.50;3.30;;;;;;;;;;8293420;28;20772;-71
2023/10/16 08:43:53;;;;;;;4.38;2.90;;;;;;;;;;8294374;28;20026;-72
2023/10/16 08:47:54;;;;;;;4.60;3.00;;;;;;;;;;8296361;28;20077;-72
2023/10/16 08:51:54;;;;;;;5.30;2.90;;;;;;;;;;8298786;28;20045;-72
2023/10/16 08:55:56;;;;;;;5.47;2.78;;;;;;;;;;8289117;28;20029;-72
2023/10/16 08:59:58;;;;;;;4.82;2.70;;;;;;;;;;8296754;28;20702;-72
2023/10/16 09:04:05;;;;;;;4.50;3.03;;;;;;;;;;8297824;28;20872;-71
2023/10/16 09:08:06;;;;;;;3.38;2.45;;;;;;;;;;8280301;28;20036;-72
2023/10/16 09:12:10;;;;;;;4.93;2.67;;;;;;;;;;8292572;28;20041;-72
2023/10/16 09:16:14;;;;;;;6.63;3.38;;;;;;;;;;8289516;28;20098;-72
2023/10/16 09:20:14;;;;;;;;;;;;;;;;;;8291365;28;20033;-72
2023/10/16 09:24:14;;;;;;;7.18;2.67;;;;;;;;;;8288257;28;19960;-72
2023/10/16 09:28:20;;;;;;;7.37;3.37;;;;;;;;;;8278878;28;20569;-71
2023/10/16 09:32:28;;;;;;;5.93;3.30;;;;;;;;;;8285990;28;20275;-72
2023/10/16 09:36:29;;;;;;;10.15;3.65;;;;;;;;;;8269539;28;20044;-70
2023/10/16 09:40:37;;;;;;;8.90;3.90;;;;;;;;;;8285565;28;20013;-71
2023/10/16 09:49:05;;;;;;;8.10;3.70;;;;;;;;;;8284622;28;20093;-70
2023/10/16 09:53:06;;;;;;;6.17;3.57;;;;;;;;;;8284907;28;20088;-72
2023/10/16 09:57:07;;;;;;;4.22;3.03;;;;;;;;;;8286394;28;20056;-72
2023/10/16 10:01:13;;;;;;;5.28;3.30;;;;;;;;;;8271546;28;20041;-72
2023/10/16 10:05:13;;;;;;;5.95;2.90;;;;;;;;;;8285360;28;20041;-71
2023/10/16 10:13:16;;;;;;;3.75;2.17;;;;;;;;;;8284997;28;20025;-74
2023/10/16 10:17:20;;;;;;;5.60;2.03;;;;;;;;;;8282491;28;20040;-74
2023/10/16 10:21:28;;;;;;;5.30;2.70;;;;;;;;;;8285072;28;20030;-73
2023/10/16 10:25:41;;;;;;;5.88;2.88;;;;;;;;;;8283318;28;20067;-73
2023/10/16 10:29:47;;;;;;;7.40;3.08;;;;;;;;;;8284945;28;20021;-74
2023/10/16 10:33:55;;;;;;;4.25;2.40;;;;;;;;;;8284450;28;20119;-73
2023/10/16 10:38:07;;;;;;;6.60;2.70;;;;;;;;;;8274812;28;20491;-73
2023/10/16 10:42:16;;;;;;;3.90;2.63;;;;;;;;;;8287580;28;20021;-73
2023/10/16 10:46:25;;;;;;;6.20;2.90;;;;;;;;;;8284184;28;20043;-73
2023/10/16 10:50:26;;;;;;;6.43;2.55;;;;;;;;;;8283302;28;20028;-74
2023/10/16 10:54:26;;;;;;;6.18;2.60;;;;;;;;;;8284089;28;20033;-73
2023/10/16 10:58:31;;;;;;;5.93;2.20;;;;;;;;;;8285258;28;20692;-73
2023/10/16 11:06:39;;;;;;;4.65;1.90;;;;;;;;;;8286290;28;20057;-74
2023/10/16 11:10:41;;;;;;;2.58;1.67;;;;;;;;;;8282048;28;20029;-73
2023/10/16 11:14:42;;;;;;;4.10;2.22;;;;;;;;;;8283126;28;21057;-73
2023/10/16 11:18:58;;;;;;;4.35;2.35;;;;;;;;;;8281108;28;20634;-73
2023/10/16 11:22:58;;;;;;;3.85;2.58;;;;;;;;;;8282811;28;20025;-73
2023/10/16 11:27:05;;;;;;;5.45;2.45;;;;;;;;;;8283666;28;20029;-73
2023/10/16 11:31:09;;;;;;;9.68;2.90;;;;;;;;;;8279838;28;20043;-73
2023/10/16 11:35:15;;;;;;;6.05;2.55;;;;;;;;;;8285478;28;20049;-73
2023/10/16 11:39:19;;;;;;;3.10;2.10;;;;;;;;;;8285171;28;20025;-73
2023/10/16 11:43:19;;;;;;;;;;;;;;;;;;8289061;28;20047;-72
2023/10/16 11:47:19;;;;;;;1.95;1.38;;;;;;;;;;8291253;28;19989;-73
2023/10/16 11:51:22;;;;;;;1.30;1.20;;;;;;;;;;8280974;28;20128;-74
2023/10/16 11:55:24;;;;;;;3.53;1.63;;;;;;;;;;8288385;28;20029;-73
2023/10/16 11:59:25;;;;;;;2.85;1.20;;;;;;;;;;8286429;28;20025;-74
2023/10/16 12:03:26;;;;;;;3.28;1.20;;;;;;;;;;8276206;28;20509;-73
2023/10/16 12:07:26;;;;;;;2.53;1.20;;;;;;;;;;8287000;28;20037;-74
2023/10/16 12:11:26;;;;;;;3.83;1.15;;;;;;;;;;8288432;28;20032;-73
2023/10/16 12:15:26;;;;;;;3.25;1.05;;;;;;;;;;8286355;28;20045;-74
2023/10/16 12:19:26;;;;;;;2.75;1.08;;;;;;;;;;8286707;28;20045;-73
2023/10/16 12:23:27;;;;;;;3.03;1.17;;;;;;;;;;8288534;28;20132;-74
2023/10/16 12:27:27;;;;;;;3.28;1.20;;;;;;;;;;8289963;28;20128;-74
2023/10/16 12:31:27;;;;;;;3.30;1.63;;;;;;;;;;8287505;28;20103;-74
2023/10/16 12:35:30;;;;;;;1.52;0.80;;;;;;;;;;8287535;28;20052;-73
2023/10/16 12:39:30;;;;;;;2.95;1.38;;;;;;;;;;8288774;28;20545;-74
2023/10/16 12:43:31;;;;;;;4.93;1.48;;;;;;;;;;8287524;28;20060;-74
2023/10/16 12:47:31;;;;;;;4.10;1.10;;;;;;;;;;8288101;28;20524;-74
2023/10/16 12:51:31;;;;;;;2.60;0.95;;;;;;;;;;8287561;28;20595;-73
2023/10/16 12:55:31;;;;;;;2.13;1.20;;;;;;;;;;8271347;28;20037;-73
2023/10/16 12:59:31;;;;;;;2.55;0.95;;;;;;;;;;8288313;28;20271;-73
2023/10/16 13:03:33;;;;;;;1.50;1.00;;;;;;;;;;8285075;28;20979;-73
2023/10/16 13:07:33;;;;;;;2.90;1.25;;;;;;;;;;8285459;28;20025;-73
2023/10/16 13:11:33;;;;;;;2.85;1.10;;;;;;;;;;8286399;28;20036;-73
2023/10/16 13:15:34;;;;;;;3.63;1.43;;;;;;;;;;8275537;28;20048;-73
2023/10/16 13:19:34;;;;;;;1.75;1.05;;;;;;;;;;8283464;28;20021;-72
2023/10/16 13:23:35;;;;;;;2.25;1.40;;;;;;;;;;8285017;28;20053;-74
2023/10/16 13:27:37;;;;;;;1.42;1.10;;;;;;;;;;8270751;28;20124;-74
2023/10/16 13:31:40;;;;;;;2.05;1.08;;;;;;;;;;8272541;28;20057;-73
2023/10/16 13:35:40;;;;;;;1.50;0.95;;;;;;;;;;8286133;28;20030;-74
2023/10/16 13:39:41;;;;;;;2.80;1.30;;;;;;;;;;8285825;28;20040;-74
2023/10/16 13:43:42;;;;;;;3.28;1.10;;;;;;;;;;8284632;28;20034;-74
2023/10/16 13:47:45;;;;;;;1.15;1.05;;;;;;;;;;8284005;28;20033;-74
2023/10/16 13:51:46;;;;;;;1.77;0.93;;;;;;;;;;8286235;28;20018;-74
2023/10/16 13:55:52;;;;;;;2.55;1.00;;;;;;;;;;8286818;28;20061;-74
2023/10/16 13:59:52;;;;;;;2.22;1.00;;;;;;;;;;8285050;28;20088;-74
2023/10/16 14:03:53;;;;;;;1.77;1.10;;;;;;;;;;8266323;28;20045;-73
2023/10/16 14:07:53;;;;;;;2.42;1.00;;;;;;;;;;8282898;28;20037;-73
2023/10/16 14:11:54;;;;;;;2.38;1.10;;;;;;;;;;8281691;28;20029;-74
2023/10/16 14:15:58;;;;;;;2.67;0.98;;;;;;;;;;8282437;28;20169;-73
2023/10/16 14:19:58;;;;;;;4.57;1.15;;;;;;;;;;8268888;28;20118;-74
2023/10/16 14:24:01;;;;;;;1.93;0.90;;;;;;;;;;8284695;28;20167;-73
2023/10/16 14:28:24;;;;;;;2.47;0.80;;;;;;;;;;8270942;28;20025;-74
2023/10/16 14:32:24;;;;;;;2.88;1.00;;;;;;;;;;8286335;28;20510;-73
2023/10/16 14:36:29;;;;;;;5.30;1.20;;;;;;;;;;8287776;28;20060;-72
2023/10/16 14:40:29;;;;;;;2.17;1.00;;;;;;;;;;8286127;28;20029;-73
2023/10/16 14:44:29;;;;;;;2.75;0.93;;;;;;;;;;8286081;28;20765;-74
2023/10/16 14:48:29;;;;;;;3.35;1.08;;;;;;;;;;8270619;28;20033;-74
2023/10/16 14:52:30;;;;;;;2.07;0.87;;;;;;;;;;8284946;28;20490;-73
2023/10/16 14:56:30;;;;;;;2.80;1.17;;;;;;;;;;8284036;28;20032;-74
2023/10/16 15:00:37;;;;;;;1.67;0.82;;;;;;;;;;8273032;28;20037;-74
2023/10/16 15:04:37;;;;;;;3.13;0.98;;;;;;;;;;8283493;28;20091;-74
2023/10/16 15:08:37;;;;;;;3.38;1.15;;;;;;;;;;8284803;28;20075;-73
2023/10/16 15:12:38;;;;;;;1.80;0.93;;;;;;;;;;8282979;28;20029;-73
2023/10/16 15:16:38;;;;;;;3.50;1.00;;;;;;;;;;8290269;28;20140;-74
2023/10/16 15:20:39;;;;;;;1.48;0.90;;;;;;;;;;8291908;28;20813;-74
2023/10/16 15:24:40;;;;;;;2.40;0.90;;;;;;;;;;8290996;28;20030;-74
2023/10/16 15:28:40;;;;;;;1.00;0.80;;;;;;;;;;8286961;28;20078;-74
2023/10/16 15:32:40;;;;;;;3.57;0.70;;;;;;;;;;8286788;28;20628;-74
2023/10/16 15:36:40;;;;;;;3.55;0.90;;;;;;;;;;8290537;28;20713;-74
2023/10/16 15:40:45;;;;;;;2.67;0.80;;;;;;;;;;8289197;28;20098;-74
2023/10/16 15:44:45;;;;;;;2.05;0.75;;;;;;;;;;8291144;28;20029;-74
2023/10/16 15:48:46;;;;;;;1.30;0.70;;;;;;;;;;8291861;28;20041;-74
2023/10/16 15:52:46;;;;;;;3.23;0.97;;;;;;;;;;8289650;28;20128;-73
2023/10/16 15:56:48;;;;;;;2.30;0.90;;;;;;;;;;8293276;28;20283;-73
2023/10/16 16:00:52;;;;;;;2.72;0.80;;;;;;;;;;8291670;28;20049;-73
2023/10/16 16:04:54;;;;;;;2.53;0.80;;;;;;;;;;8288891;28;20025;-73
2023/10/16 16:08:55;;;;;;;2.65;0.90;;;;;;;;;;8289560;28;20029;-74
2023/10/16 16:12:55;;;;;;;2.50;0.90;;;;;;;;;;8287968;28;20040;-74
2023/10/16 16:16:56;;;;;;;4.57;1.42;;;;;;;;;;8288615;28;20053;-73
2023/10/16 16:20:56;;;;;;;4.38;1.17;;;;;;;;;;8276461;28;20033;-73
2023/10/16 16:24:57;;;;;;;2.83;1.00;;;;;;;;;;8288787;28;20670;-73
2023/10/16 16:28:58;;;;;;;3.75;1.17;;;;;;;;;;8289348;28;20025;-74
2023/10/16 16:32:59;;;;;;;4.03;1.30;;;;;;;;;;8274389;28;22106;-74
2023/10/16 16:36:59;;;;;;;1.10;0.80;;;;;;;;;;8288582;28;20021;-73
2023/10/16 16:40:59;;;;;;;2.80;0.90;;;;;;;;;;8289222;28;20032;-72
2023/10/16 16:45:00;;;;;;;2.97;1.10;;;;;;;;;;8287889;28;20478;-74
2023/10/16 16:49:01;;;;;;;2.88;1.10;;;;;;;;;;8283431;28;20038;-73
2023/10/16 16:53:03;;;;;;;3.70;1.00;;;;;;;;;;8286490;28;20983;-74
2023/10/16 16:57:04;;;;;;;2.20;1.13;;;;;;;;;;8288810;28;20022;-73
2023/10/16 17:01:04;;;;;;;2.15;0.95;;;;;;;;;;8286605;28;20037;-73
2023/10/16 17:05:06;;;;;;;1.70;0.80;;;;;;;;;;8285662;28;20033;-74
2023/10/16 17:09:08;;;;;;;1.77;0.90;;;;;;;;;;8284574;28;20035;-74
2023/10/16 17:13:10;;;;;;;1.92;0.90;;;;;;;;;;8286555;28;20040;-74
2023/10/16 17:17:10;;;;;;;2.13;1.00;;;;;;;;;;8285329;28;20791;-74
2023/10/16 17:21:13;;;;;;;6.38;1.08;;;;;;;;;;8284043;28;20025;-74
2023/10/16 17:25:14;;;;;;;3.05;1.10;;;;;;;;;;8288730;28;20776;-74
2023/10/16 17:29:14;;;;;;;2.70;1.13;;;;;;;;;;8285568;28;20817;-73
2023/10/16 17:33:14;;;;;;;1.60;0.90;;;;;;;;;;8284725;28;20046;-74
2023/10/16 17:37:15;;;;;;;1.48;1.00;;;;;;;;;;8283128;28;20074;-73
2023/10/16 17:41:17;;;;;;;1.50;1.00;;;;;;;;;;8285159;28;20022;-74
2023/10/16 17:45:17;;;;;;;3.75;1.00;;;;;;;;;;8284329;28;20136;-73
2023/10/16 17:49:20;;;;;;;1.45;0.80;;;;;;;;;;8284723;28;20670;-72
2023/10/16 17:53:20;;;;;;;2.42;1.20;;;;;;;;;;8280891;28;20032;-72
2023/10/16 17:57:20;;;;;;;2.97;1.10;;;;;;;;;;8282574;28;20029;-73
2023/10/16 18:01:20;;;;;;;1.38;0.85;;;;;;;;;;8286398;28;20111;-74
2023/10/16 18:05:21;;;;;;;1.90;0.93;;;;;;;;;;8286049;28;20064;-74
2023/10/16 18:09:34;;;;;;;1.67;0.80;;;;;;;;;;8284975;28;20762;-74
2023/10/16 18:13:34;;;;;;;1.60;0.80;;;;;;;;;;8286389;28;20032;-74
2023/10/16 18:17:35;;;;;;;1.75;0.98;;;;;;;;;;8283136;28;20047;-73
2023/10/16 18:21:35;;;;;;;3.97;1.00;;;;;;;;;;8265403;28;20025;-73
2023/10/16 18:25:36;;;;;;;3.08;1.20;;;;;;;;;;8283927;28;20407;-73
2023/10/16 18:29:37;;;;;;;2.30;1.00;;;;;;;;;;8268183;28;20025;-73
2023/10/16 18:33:43;;;;;;;1.58;1.13;;;;;;;;;;8275377;28;20119;-74
2023/10/16 18:37:47;;;;;;;6.07;0.80;;;;;;;;;;8274669;28;20382;-73
2023/10/16 18:41:48;;;;;;;2.85;1.00;;;;;;;;;;8283496;28;20017;-73
2023/10/16 18:45:48;;;;;;;1.27;1.05;;;;;;;;;;8285462;28;20260;-74
2023/10/16 18:49:49;;;;;;;3.70;1.17;;;;;;;;;;8284337;28;20290;-74
2023/10/16 18:53:49;;;;;;;2.40;1.23;;;;;;;;;;8286393;28;20134;-73
2023/10/16 18:57:49;;;;;;;4.53;1.45;;;;;;;;;;8266864;28;20509;-74
2023/10/16 19:01:50;;;;;;;3.65;1.30;;;;;;;;;;8281969;28;20034;-73
2023/10/16 19:05:50;;;;;;;2.83;1.20;;;;;;;;;;8282455;28;20122;-73
2023/10/16 19:09:51;;;;;;;2.67;1.27;;;;;;;;;;8284151;28;20112;-74
2023/10/16 19:13:52;;;;;;;4.70;1.55;;;;;;;;;;8285299;28;20029;-74
2023/10/16 19:17:52;;;;;;;5.45;1.33;;;;;;;;;;8268922;28;20041;-73
2023/10/16 19:21:52;;;;;;;1.63;0.95;;;;;;;;;;8282521;28;20018;-74
2023/10/16 19:26:04;;;;;;;3.63;1.27;;;;;;;;;;8282849;28;20734;-74
2023/10/16 19:30:10;;;;;;;6.10;1.30;;;;;;;;;;8267409;28;20032;-73
2023/10/16 19:34:11;;;;;;;4.20;1.40;;;;;;;;;;8283345;28;20032;-73
2023/10/16 19:38:11;;;;;;;6.95;1.42;;;;;;;;;;8281669;28;20032;-73
2023/10/16 19:42:12;;;;;;;3.83;1.15;;;;;;;;;;8284564;28;20034;-74
2023/10/16 19:46:13;;;;;;;3.33;1.23;;;;;;;;;;8283473;28;20032;-74
2023/10/16 19:50:14;;;;;;;3.70;1.27;;;;;;;;;;8282100;28;20103;-74
2023/10/16 19:54:15;;;;;;;2.92;1.38;;;;;;;;;;8285875;28;20021;-74
2023/10/16 19:58:16;;;;;;;3.22;1.40;;;;;;;;;;8285297;28;20662;-73
2023/10/16 20:02:18;;;;;;;1.98;1.30;;;;;;;;;;8273062;28;20029;-74
2023/10/16 20:06:18;;;;;;;2.28;1.25;;;;;;;;;;8286113;28;20033;-73
2023/10/16 20:10:19;;;;;;;2.28;1.45;;;;;;;;;;8286620;28;20033;-74
2023/10/16 20:14:20;;;;;;;3.33;1.58;;;;;;;;;;8288951;28;20033;-74
2023/10/16 20:18:20;;;;;;;1.30;1.20;;;;;;;;;;8288578;28;20033;-73
2023/10/16 20:22:20;;;;;;;2.97;1.17;;;;;;;;;;8286151;28;20060;-73
2023/10/16 20:26:21;;;;;;;4.65;1.23;;;;;;;;;;8288734;28;20040;-73
2023/10/16 20:30:21;;;;;;;2.85;1.00;;;;;;;;;;8287316;28;20112;-74
2023/10/16 20:34:21;;;;;;;2.85;1.42;;;;;;;;;;8287419;28;20021;-72
2023/10/16 20:38:22;;;;;;;2.58;1.30;;;;;;;;;;8272222;28;20021;-73
2023/10/16 20:42:22;;;;;;;2.85;1.48;;;;;;;;;;8272926;28;20037;-74
2023/10/16 20:46:22;;;;;;;1.70;1.23;;;;;;;;;;8288261;28;20508;-73
2023/10/16 20:50:31;;;;;;;1.30;1.05;;;;;;;;;;8289067;28;20079;-72
2023/10/16 20:54:32;;;;;;;1.48;1.05;;;;;;;;;;8276633;28;20798;-74
2023/10/16 20:58:32;;;;;;;1.17;1.08;;;;;;;;;;8288717;28;20020;-74
2023/10/16 21:02:32;;;;;;;1.58;0.98;;;;;;;;;;8286253;28;20061;-73
2023/10/16 21:06:32;;;;;;;2.17;1.10;;;;;;;;;;8268247;28;20025;-73
2023/10/16 21:10:32;;;;;;;1.85;0.95;;;;;;;;;;8286234;28;20036;-73
2023/10/16 21:14:33;;;;;;;2.83;1.20;;;;;;;;;;8287560;28;20036;-72
2023/10/16 21:18:33;;;;;;;1.42;0.98;;;;;;;;;;8271532;28;20056;-73
2023/10/16 21:22:33;;;;;;;1.42;1.10;;;;;;;;;;8285304;28;20571;-73
2023/10/16 21:26:33;;;;;;;2.00;1.20;;;;;;;;;;8287412;28;20033;-73
2023/10/16 21:30:33;;;;;;;2.00;1.08;;;;;;;;;;8283001;28;20071;-74
2023/10/16 21:34:34;;;;;;;4.00;1.20;;;;;;;;;;8285441;28;20515;-72
2023/10/16 21:38:34;;;;;;;2.60;1.10;;;;;;;;;;8285058;28;20043;-73
2023/10/16 21:42:35;;;;;;;1.10;1.00;;;;;;;;;;8283269;28;20053;-73
2023/10/16 21:46:36;;;;;;;1.83;1.10;;;;;;;;;;8285112;28;20044;-73
2023/10/16 21:50:36;;;;;;;1.50;1.00;;;;;;;;;;8282252;28;20021;-74
2023/10/16 21:54:36;;;;;;;3.58;1.00;;;;;;;;;;8285225;28;21166;-72
2023/10/16 21:58:36;;;;;;;2.50;0.93;;;;;;;;;;8276046;28;20051;-73
2023/10/16 22:02:37;;;;;;;3.00;1.00;;;;;;;;;;8282783;28;20109;-73
2023/10/16 22:06:38;;;;;;;2.05;1.20;;;;;;;;;;8281011;28;20314;-74
2023/10/16 22:10:39;;;;;;;1.58;1.17;;;;;;;;;;8280015;28;20026;-73
2023/10/16 22:14:42;;;;;;;2.97;1.17;;;;;;;;;;8280993;28;20037;-73
2023/10/16 22:18:43;;;;;;;2.55;1.10;;;;;;;;;;8279470;28;20077;-74
2023/10/16 22:22:43;;;;;;;2.13;1.23;;;;;;;;;;8281341;28;20119;-73
2023/10/16 22:26:43;;;;;;;3.50;1.30;;;;;;;;;;8282599;28;20509;-73
2023/10/16 22:30:44;;;;;;;1.83;1.33;;;;;;;;;;8263603;28;20033;-73
2023/10/16 22:34:44;;;;;;;2.20;1.35;;;;;;;;;;8281535;28;20778;-73
2023/10/16 22:38:45;;;;;;;1.73;1.10;;;;;;;;;;8274258;28;20025;-73
2023/10/16 22:42:45;;;;;;;2.10;1.20;;;;;;;;;;8266554;28;20065;-73
2023/10/16 22:46:49;;;;;;;1.42;1.20;;;;;;;;;;8282011;28;20106;-73
2023/10/16 22:50:49;;;;;;;3.78;1.45;;;;;;;;;;8281268;28;21009;-73
2023/10/16 22:54:51;;;;;;;2.13;1.30;;;;;;;;;;8280238;28;20045;-72
2023/10/16 22:58:51;;;;;;;4.25;2.10;;;;;;;;;;8280412;28;20128;-73
2023/10/16 23:02:51;;;;;;;5.53;2.60;;;;;;;;;;8284091;28;20080;-73
2023/10/16 23:06:51;;;;;;;4.50;2.40;;;;;;;;;;8279393;28;21850;-72
2023/10/16 23:10:54;;;;;;;4.15;1.73;;;;;;;;;;8281855;28;20099;-73
2023/10/16 23:15:01;;;;;;;2.38;1.80;;;;;;;;;;8278051;28;22004;-73
2023/10/16 23:19:08;;;;;;;2.90;1.58;;;;;;;;;;8262939;28;20045;-72
2023/10/16 23:23:09;;;;;;;2.67;1.55;;;;;;;;;;8279163;28;20036;-73
2023/10/16 23:27:09;;;;;;;2.95;1.65;;;;;;;;;;8279350;28;20025;-73
2023/10/16 23:31:10;;;;;;;8.00;1.90;;;;;;;;;;8277382;28;21008;-73
2023/10/16 23:35:12;;;;;;;2.97;1.63;;;;;;;;;;8280944;28;20183;-73
2023/10/16 23:39:15;;;;;;;2.15;1.30;;;;;;;;;;8281968;28;20013;-73
2023/10/16 23:43:15;;;;;;;2.80;1.23;;;;;;;;;;8283909;28;20013;-72
2023/10/16 23:47:16;;;;;;;3.22;1.27;;;;;;;;;;8282939;28;20039;-73
2023/10/16 23:51:21;;;;;;;1.65;1.48;;;;;;;;;;8283147;28;20095;-73
2023/10/16 23:55:31;;;;;;;3.33;1.40;;;;;;;;;;8285049;28;20018;-73
2023/10/16 23:59:34;;;;;;;2.00;1.50;;;;;;;;;;8284669;28;20021;-73
